createdAt,value
2023-01-19T00:02:55.680Z,98414.08
2023-01-19T00:06:44.563Z,98415.30
2023-01-19T00:10:27.450Z,98419.86
2023-01-19T00:14:09.934Z,98426.20
2023-01-19T00:17:44.879Z,98438.58
2023-01-19T00:21:52.916Z,98443.90
2023-01-19T00:25:54.345Z,98449.05
2023-01-19T00:29:43.507Z,98452.94
2023-01-19T00:33:37.551Z,98458.92
2023-01-19T00:37:39.710Z,98461.00
2023-01-19T00:41:41.622Z,98471.02
2023-01-19T00:45:03.085Z,98475.52
2023-01-19T00:49:19.053Z,98485.16
2023-01-19T00:53:03.961Z,98488.32
2023-01-19T00:56:25.150Z,98494.36
2023-01-19T00:59:32.372Z,98495.55
2023-01-19T01:03:06.828Z,98496.86
2023-01-19T01:07:08.991Z,98495.34
2023-01-19T01:10:36.953Z,98499.25
2023-01-19T01:14:27.660Z,98500.74
2023-01-19T01:18:29.959Z,98492.42
2023-01-19T01:22:20.112Z,98498.48
2023-01-19T01:25:26.746Z,98503.07
2023-01-19T01:28:31.708Z,98508.13
2023-01-19T01:31:33.706Z,98512.59
2023-01-19T01:34:46.641Z,98513.58
2023-01-19T01:38:38.680Z,98509.64
2023-01-19T01:42:30.402Z,98514.05
2023-01-19T01:46:32.580Z,98518.22
2023-01-19T01:49:55.650Z,98518.80
2023-01-19T01:54:00.303Z,98525.20
2023-01-19T01:57:45.640Z,98532.36
2023-01-19T02:01:37.758Z,98532.89
2023-01-19T02:05:13.548Z,98537.61
2023-01-19T02:09:14.025Z,98546.30
2023-01-19T02:13:14.633Z,98543.34
2023-01-19T02:17:17.377Z,98548.51
2023-01-19T02:21:19.599Z,98545.66
2023-01-19T02:24:25.518Z,98545.66
2023-01-19T02:27:39.876Z,98551.27
2023-01-19T02:31:17.568Z,98561.70
2023-01-19T02:34:39.866Z,98580.48
2023-01-19T02:38:23.462Z,98584.75
2023-01-19T02:42:19.957Z,98578.42
2023-01-19T02:46:22.248Z,98565.77
2023-01-19T02:49:50.471Z,98570.52
2023-01-19T02:53:52.654Z,98576.93
2023-01-19T02:57:49.210Z,98572.17
2023-01-19T03:01:31.660Z,98575.21
2023-01-19T03:04:42.498Z,98578.65
2023-01-19T03:08:31.259Z,98586.27
2023-01-19T03:12:33.135Z,98594.39
2023-01-19T03:16:52.256Z,98599.58
2023-01-19T03:20:53.484Z,98603.93
2023-01-19T03:24:37.024Z,98599.70
2023-01-19T03:28:35.012Z,98603.59
2023-01-19T03:32:35.706Z,98610.66
2023-01-19T03:36:48.424Z,98616.10
2023-01-19T03:40:59.685Z,98612.35
2023-01-19T03:44:42.341Z,98617.95
2023-01-19T03:48:43.986Z,98622.46
2023-01-19T03:52:46.209Z,98620.91
2023-01-19T03:57:03.682Z,98620.52
2023-01-19T04:00:55.454Z,98621.29
2023-01-19T04:04:56.795Z,98624.44
2023-01-19T04:08:11.907Z,98623.27
2023-01-19T04:11:57.658Z,98623.52
2023-01-19T04:15:48.832Z,98629.02
2023-01-19T04:19:42.961Z,98638.33
2023-01-19T04:23:49.229Z,98641.05
2023-01-19T04:27:50.211Z,98636.05
2023-01-19T04:31:31.266Z,98635.60
2023-01-19T04:35:33.608Z,98641.90
2023-01-19T04:39:06.348Z,98648.21
2023-01-19T04:43:08.532Z,98652.17
2023-01-19T04:47:02.750Z,98640.40
2023-01-19T04:50:58.184Z,98633.55
2023-01-19T04:54:43.083Z,98643.14
2023-01-19T04:57:53.900Z,98645.82
2023-01-19T05:01:18.305Z,98649.98
2023-01-19T05:05:13.424Z,98649.90
2023-01-19T05:09:08.405Z,98646.24
2023-01-19T05:13:09.405Z,98651.14
2023-01-19T05:16:54.555Z,98656.06
2023-01-19T05:20:03.896Z,98654.17
2023-01-19T05:23:16.113Z,98652.20
2023-01-19T05:26:46.381Z,98656.05
2023-01-19T05:30:08.722Z,98657.84
2023-01-19T05:33:14.972Z,98657.39
2023-01-19T05:37:04.615Z,98661.02
2023-01-19T05:40:36.013Z,98658.06
2023-01-19T05:44:10.209Z,98656.67
2023-01-19T05:48:02.309Z,98652.50
2023-01-19T05:51:37.944Z,98649.38
2023-01-19T05:55:40.129Z,98651.15
2023-01-19T05:58:45.097Z,98657.39
2023-01-19T06:02:08.038Z,98658.91
2023-01-19T06:05:45.398Z,98661.18
2023-01-19T06:09:07.437Z,98661.08
2023-01-19T06:12:08.993Z,98655.08
2023-01-19T06:15:42.146Z,98659.37
2023-01-19T06:18:43.735Z,98663.62
2023-01-19T06:22:07.353Z,98671.58
2023-01-19T06:25:33.138Z,98674.49
2023-01-19T06:29:03.556Z,98677.80
2023-01-19T06:32:38.433Z,98681.38
2023-01-19T06:36:40.743Z,98694.20
2023-01-19T06:40:08.625Z,98704.39
2023-01-19T06:43:13.787Z,98709.84
2023-01-19T06:46:17.647Z,98708.91
2023-01-19T06:50:07.018Z,98706.48
2023-01-19T06:53:21.774Z,98706.81
2023-01-19T06:56:28.481Z,98710.96
2023-01-19T06:59:42.194Z,98715.75
2023-01-19T07:02:54.908Z,98728.19
2023-01-19T07:06:35.925Z,98736.70
2023-01-19T07:10:16.134Z,98746.44
2023-01-19T07:13:50.791Z,98747.02
2023-01-19T07:17:43.659Z,98753.87
2023-01-19T07:21:02.355Z,98756.64
2023-01-19T07:24:34.981Z,98760.84
2023-01-19T07:28:03.087Z,98767.80
2023-01-19T07:31:48.048Z,98768.09
2023-01-19T07:35:04.029Z,98767.16
2023-01-19T07:38:57.141Z,98767.60
2023-01-19T07:42:51.663Z,98770.16
2023-01-19T07:46:00.817Z,98774.98
2023-01-19T07:49:07.951Z,98777.17
2023-01-19T07:52:55.510Z,98774.33
2023-01-19T07:56:43.128Z,98786.13
2023-01-19T08:00:35.455Z,98790.11
2023-01-19T08:04:11.394Z,98792.21
2023-01-19T08:08:05.414Z,98796.34
2023-01-19T08:11:37.906Z,98791.10
2023-01-19T08:14:51.399Z,98787.10
2023-01-19T08:18:15.144Z,98792.09
2023-01-19T08:22:00.066Z,98787.92
2023-01-19T08:25:19.670Z,98785.85
2023-01-19T08:28:22.094Z,98785.34
2023-01-19T08:32:04.446Z,98785.35
2023-01-19T08:35:34.351Z,98787.70
2023-01-19T08:38:42.912Z,98790.88
2023-01-19T08:42:44.445Z,98789.75
2023-01-19T08:46:25.163Z,98788.23
2023-01-19T08:50:28.409Z,98786.19
2023-01-19T08:54:23.682Z,98781.86
2023-01-19T08:58:14.220Z,98788.20
2023-01-19T09:02:16.543Z,98788.02
2023-01-19T09:06:00.878Z,98784.72
2023-01-19T09:09:44.322Z,98784.09
2023-01-19T09:13:16.605Z,98785.95
2023-01-19T09:17:01.585Z,98790.52
2023-01-19T09:20:49.384Z,98795.52
2023-01-19T09:24:34.443Z,98804.45
2023-01-19T09:28:27.091Z,98805.12
2023-01-19T09:32:04.978Z,98811.52
2023-01-19T09:35:28.485Z,98814.11
2023-01-19T09:39:41.619Z,98813.91
2023-01-19T09:48:10.801Z,98821.65
2023-01-19T09:52:15.758Z,98825.98
2023-01-19T09:56:11.095Z,98823.98
2023-01-19T10:00:07.401Z,98830.33
2023-01-19T10:03:54.733Z,98825.94
2023-01-19T10:07:52.499Z,98826.77
2023-01-19T10:11:52.966Z,98822.55
2023-01-19T10:15:54.797Z,98816.88
2023-01-19T10:19:37.765Z,98818.15
2023-01-19T10:23:31.613Z,98824.96
2023-01-19T10:27:22.355Z,98824.48
2023-01-19T10:31:17.539Z,98830.77
2023-01-19T10:35:19.818Z,98830.09
2023-01-19T10:39:22.007Z,98831.99
2023-01-19T10:43:24.308Z,98827.21
2023-01-19T10:47:10.676Z,98828.64
2023-01-19T10:51:11.813Z,98830.67
2023-01-19T10:55:14.088Z,98833.75
2023-01-19T10:59:23.991Z,98832.15
2023-01-19T11:03:12.627Z,98825.27
2023-01-19T11:07:08.923Z,98821.73
2023-01-19T11:11:17.298Z,98818.46
2023-01-19T11:15:09.299Z,98809.01
2023-01-19T11:19:17.429Z,98802.71
2023-01-19T11:23:20.055Z,98797.75
2023-01-19T11:27:16.356Z,98789.06
2023-01-19T11:31:19.684Z,98791.77
2023-01-19T11:35:16.456Z,98792.95
2023-01-19T11:39:24.611Z,98796.38
2023-01-19T11:43:15.868Z,98795.28
2023-01-19T11:47:18.768Z,98800.13
2023-01-19T11:51:21.740Z,98794.42
2023-01-19T11:55:07.099Z,98798.08
2023-01-19T11:59:04.595Z,98794.67
2023-01-19T12:03:22.685Z,98792.48
2023-01-19T12:07:25.444Z,98786.13
2023-01-19T12:11:27.672Z,98782.55
2023-01-19T12:15:43.232Z,98785.42
2023-01-19T12:19:47.755Z,98784.85
2023-01-19T12:23:58.795Z,98791.22
2023-01-19T12:28:06.550Z,98791.64
2023-01-19T12:32:08.807Z,98788.57
2023-01-19T12:36:08.492Z,98790.73
2023-01-19T12:40:16.284Z,98785.64
2023-01-19T12:44:12.573Z,98775.42
2023-01-19T12:48:08.025Z,98777.93
2023-01-19T12:52:06.408Z,98776.89
2023-01-19T12:56:17.580Z,98767.90
2023-01-19T13:00:15.379Z,98763.02
2023-01-19T13:04:16.422Z,98763.84
2023-01-19T13:08:17.949Z,98763.74
2023-01-19T13:12:13.007Z,98758.98
2023-01-19T13:16:33.996Z,98759.59
2023-01-19T13:20:36.356Z,98758.95
2023-01-19T13:24:49.917Z,98754.41
2023-01-19T13:28:54.689Z,98765.33
2023-01-19T13:32:39.633Z,98768.95
2023-01-19T13:36:42.019Z,98766.89
2023-01-19T13:40:37.686Z,98764.44
2023-01-19T13:44:23.134Z,98772.13
2023-01-19T13:48:24.469Z,98764.43
2023-01-19T13:52:27.811Z,98763.61
2023-01-19T13:56:28.708Z,98766.05
2023-01-19T14:00:31.518Z,98767.58
2023-01-19T14:04:19.329Z,98765.65
2023-01-19T14:08:21.701Z,98765.17
2023-01-19T14:12:29.312Z,98764.24
2023-01-19T14:16:32.044Z,98763.77
2023-01-19T14:20:40.540Z,98759.80
2023-01-19T14:24:45.856Z,98761.91
2023-01-19T14:28:50.269Z,98761.73
2023-01-19T14:32:31.840Z,98767.34
2023-01-19T14:36:27.198Z,98769.85
2023-01-19T14:40:47.916Z,98767.78
2023-01-19T14:44:48.968Z,98775.67
2023-01-19T14:48:54.857Z,98780.25
2023-01-19T14:52:56.921Z,98775.94
2023-01-19T14:57:05.209Z,98781.69
2023-01-19T15:01:07.454Z,98781.50
2023-01-19T15:05:15.384Z,98783.64
2023-01-19T15:08:29.664Z,98786.75
2023-01-19T15:11:35.239Z,98791.56
2023-01-19T15:15:37.465Z,98790.43
2023-01-19T15:19:37.213Z,98788.92
2023-01-19T15:23:15.234Z,98787.66
2023-01-19T15:27:08.472Z,98789.95
2023-01-19T15:31:08.051Z,98795.19
2023-01-19T15:35:04.450Z,98798.44
2023-01-19T15:38:56.857Z,98799.77
2023-01-19T15:42:34.440Z,98803.33
2023-01-19T15:46:28.291Z,98808.50
2023-01-19T15:50:19.187Z,98815.98
2023-01-19T15:54:40.191Z,98816.58
2023-01-19T15:58:40.750Z,98823.13
2023-01-19T16:02:37.569Z,98830.11
2023-01-19T16:06:41.404Z,98832.78
2023-01-19T16:10:46.641Z,98827.48
2023-01-19T16:14:40.388Z,98833.36
2023-01-19T16:18:43.125Z,98841.39
2023-01-19T16:29:04.671Z,98847.39
2023-01-19T16:55:46.846Z,98879.14
2023-01-19T16:59:54.842Z,98882.55
2023-01-19T17:03:39.825Z,98892.73
2023-01-19T17:07:36.148Z,98889.09
2023-01-19T17:11:38.089Z,98890.20
2023-01-19T17:15:33.586Z,98891.91
2023-01-19T17:24:01.485Z,98892.44
2023-01-19T17:28:05.226Z,98895.34
2023-01-19T17:31:54.739Z,98900.60
2023-01-19T17:35:50.090Z,98904.66
2023-01-19T17:39:36.401Z,98903.96
2023-01-19T17:43:29.729Z,98907.06
2023-01-19T17:47:27.038Z,98911.02
2023-01-19T17:51:31.211Z,98916.28
2023-01-19T17:55:34.942Z,98918.05
2023-01-19T17:59:14.149Z,98921.84
2023-01-19T18:07:32.592Z,98930.88
2023-01-19T18:11:29.094Z,98927.69
2023-01-19T18:15:30.375Z,98935.98
2023-01-19T18:19:24.106Z,98943.03
2023-01-19T18:23:27.828Z,98947.89
2023-01-19T18:27:12.806Z,98946.59
2023-01-19T18:31:16.494Z,98952.95
2023-01-19T18:35:20.231Z,98956.41
2023-01-19T18:39:09.458Z,98956.46
2023-01-19T18:43:19.085Z,98954.98
2023-01-19T18:47:21.568Z,98950.96
2023-01-19T18:51:24.691Z,98952.79
2023-01-19T18:55:20.022Z,98958.72
2023-01-19T18:59:18.422Z,98955.81
2023-01-19T19:03:20.609Z,98960.59
2023-01-19T19:07:33.044Z,98956.06
2023-01-19T19:11:26.865Z,98957.70
2023-01-19T19:15:21.703Z,98961.89
2023-01-19T19:19:13.728Z,98971.16
2023-01-19T19:23:10.177Z,98965.71
2023-01-19T19:27:14.481Z,98966.89
2023-01-19T19:31:01.286Z,98968.73
2023-01-19T19:35:06.282Z,98964.09
2023-01-19T19:39:10.293Z,98974.75
2023-01-19T19:43:14.009Z,98978.05
2023-01-19T19:47:18.134Z,98984.41
2023-01-19T19:51:17.129Z,98992.15
2023-01-19T19:55:22.018Z,98994.30
2023-01-19T19:59:26.343Z,99002.63
2023-01-19T20:03:15.323Z,99002.44
2023-01-19T20:07:18.099Z,99002.58
2023-01-19T20:11:10.831Z,98997.67
2023-01-19T20:15:07.245Z,98997.94
